sensor_id;sensor_type;location;lat;lon;timestamp;P1;durP1;ratioP1;P2;durP2;ratioP2
51459;SDS011;37534;39.772;2.718;2023-04-22T00:00:59;2.47;;;1.30;;
51459;SDS011;37534;39.772;2.718;2023-04-22T00:03:26;3.42;;;1.65;;
51459;SDS011;37534;39.772;2.718;2023-04-22T00:05:53;6.05;;;1.73;;
51459;SDS011;37534;39.772;2.718;2023-04-22T00:08:18;5.03;;;2.22;;
51459;SDS011;37534;39.772;2.718;2023-04-22T00:10:44;5.53;;;2.65;;
51459;SDS011;37534;39.772;2.718;2023-04-22T00:13:09;4.10;;;1.73;;
51459;SDS011;37534;39.772;2.718;2023-04-22T00:15:35;5.28;;;2.58;;
51459;SDS011;37534;39.772;2.718;2023-04-22T00:18:01;11.32;;;3.05;;
51459;SDS011;37534;39.772;2.718;2023-04-22T00:20:26;7.18;;;2.75;;
51459;SDS011;37534;39.772;2.718;2023-04-22T00:22:52;6.22;;;2.60;;
51459;SDS011;37534;39.772;2.718;2023-04-22T00:25:18;8.90;;;2.30;;
51459;SDS011;37534;39.772;2.718;2023-04-22T00:27:43;8.35;;;2.45;;
51459;SDS011;37534;39.772;2.718;2023-04-22T00:30:09;15.15;;;2.85;;
51459;SDS011;37534;39.772;2.718;2023-04-22T00:32:35;9.02;;;2.22;;
51459;SDS011;37534;39.772;2.718;2023-04-22T00:35:02;6.18;;;2.47;;
51459;SDS011;37534;39.772;2.718;2023-04-22T00:37:27;9.32;;;2.35;;
51459;SDS011;37534;39.772;2.718;2023-04-22T00:39:53;10.23;;;2.75;;
51459;SDS011;37534;39.772;2.718;2023-04-22T00:42:18;7.45;;;3.05;;
51459;SDS011;37534;39.772;2.718;2023-04-22T00:44:45;5.07;;;2.17;;
51459;SDS011;37534;39.772;2.718;2023-04-22T00:47:12;5.93;;;2.42;;
51459;SDS011;37534;39.772;2.718;2023-04-22T00:49:37;13.63;;;3.35;;
51459;SDS011;37534;39.772;2.718;2023-04-22T00:52:03;18.40;;;2.83;;
51459;SDS011;37534;39.772;2.718;2023-04-22T00:54:29;17.55;;;3.47;;
51459;SDS011;37534;39.772;2.718;2023-04-22T00:56:56;4.25;;;2.58;;
51459;SDS011;37534;39.772;2.718;2023-04-22T00:59:23;8.43;;;2.83;;
51459;SDS011;37534;39.772;2.718;2023-04-22T01:01:50;7.78;;;2.60;;
51459;SDS011;37534;39.772;2.718;2023-04-22T01:04:16;5.28;;;2.78;;
51459;SDS011;37534;39.772;2.718;2023-04-22T01:06:42;10.48;;;2.80;;
51459;SDS011;37534;39.772;2.718;2023-04-22T01:09:08;8.05;;;2.70;;
51459;SDS011;37534;39.772;2.718;2023-04-22T01:11:34;7.30;;;2.50;;
51459;SDS011;37534;39.772;2.718;2023-04-22T01:14:01;5.28;;;2.47;;
51459;SDS011;37534;39.772;2.718;2023-04-22T01:16:28;29.13;;;3.53;;
51459;SDS011;37534;39.772;2.718;2023-04-22T01:18:55;5.03;;;2.55;;
51459;SDS011;37534;39.772;2.718;2023-04-22T01:21:21;5.40;;;2.67;;
51459;SDS011;37534;39.772;2.718;2023-04-22T01:23:48;7.68;;;2.70;;
51459;SDS011;37534;39.772;2.718;2023-04-22T01:26:13;6.38;;;2.63;;
51459;SDS011;37534;39.772;2.718;2023-04-22T01:28:39;14.75;;;3.05;;
51459;SDS011;37534;39.772;2.718;2023-04-22T01:31:05;7.25;;;2.88;;
51459;SDS011;37534;39.772;2.718;2023-04-22T01:33:30;5.65;;;2.03;;
51459;SDS011;37534;39.772;2.718;2023-04-22T01:35:56;8.50;;;3.10;;
51459;SDS011;37534;39.772;2.718;2023-04-22T01:38:22;4.00;;;2.60;;
51459;SDS011;37534;39.772;2.718;2023-04-22T01:40:47;13.90;;;2.67;;
51459;SDS011;37534;39.772;2.718;2023-04-22T01:43:13;8.80;;;2.25;;
51459;SDS011;37534;39.772;2.718;2023-04-22T01:45:39;12.05;;;2.95;;
51459;SDS011;37534;39.772;2.718;2023-04-22T01:48:04;8.00;;;2.70;;
51459;SDS011;37534;39.772;2.718;2023-04-22T01:50:31;5.72;;;2.08;;
51459;SDS011;37534;39.772;2.718;2023-04-22T01:52:57;16.00;;;3.10;;
51459;SDS011;37534;39.772;2.718;2023-04-22T01:55:23;6.45;;;2.38;;
51459;SDS011;37534;39.772;2.718;2023-04-22T01:57:48;4.60;;;2.45;;
51459;SDS011;37534;39.772;2.718;2023-04-22T02:00:14;6.53;;;2.53;;
51459;SDS011;37534;39.772;2.718;2023-04-22T02:02:40;9.13;;;2.55;;
51459;SDS011;37534;39.772;2.718;2023-04-22T02:05:05;4.95;;;2.20;;
51459;SDS011;37534;39.772;2.718;2023-04-22T02:07:32;6.32;;;2.55;;
51459;SDS011;37534;39.772;2.718;2023-04-22T02:09:57;5.45;;;2.55;;
51459;SDS011;37534;39.772;2.718;2023-04-22T02:12:23;11.80;;;2.80;;
51459;SDS011;37534;39.772;2.718;2023-04-22T02:14:48;4.85;;;2.47;;
51459;SDS011;37534;39.772;2.718;2023-04-22T02:17:14;5.88;;;2.22;;
51459;SDS011;37534;39.772;2.718;2023-04-22T02:19:41;7.95;;;2.50;;
51459;SDS011;37534;39.772;2.718;2023-04-22T02:22:07;4.70;;;1.60;;
51459;SDS011;37534;39.772;2.718;2023-04-22T02:24:33;5.68;;;2.20;;
51459;SDS011;37534;39.772;2.718;2023-04-22T02:26:59;4.88;;;1.90;;
51459;SDS011;37534;39.772;2.718;2023-04-22T02:29:25;3.42;;;1.95;;
51459;SDS011;37534;39.772;2.718;2023-04-22T02:31:51;8.90;;;2.45;;
51459;SDS011;37534;39.772;2.718;2023-04-22T02:34:16;3.40;;;2.25;;
51459;SDS011;37534;39.772;2.718;2023-04-22T02:36:42;9.05;;;3.20;;
51459;SDS011;37534;39.772;2.718;2023-04-22T02:39:07;5.63;;;2.55;;
51459;SDS011;37534;39.772;2.718;2023-04-22T02:41:33;6.20;;;1.90;;
51459;SDS011;37534;39.772;2.718;2023-04-22T02:43:58;4.13;;;2.20;;
51459;SDS011;37534;39.772;2.718;2023-04-22T02:46:24;11.10;;;2.22;;
51459;SDS011;37534;39.772;2.718;2023-04-22T02:48:49;8.60;;;2.00;;
51459;SDS011;37534;39.772;2.718;2023-04-22T02:51:15;9.80;;;2.65;;
51459;SDS011;37534;39.772;2.718;2023-04-22T02:53:40;5.30;;;2.22;;
51459;SDS011;37534;39.772;2.718;2023-04-22T02:56:07;16.98;;;3.22;;
51459;SDS011;37534;39.772;2.718;2023-04-22T02:58:32;5.60;;;2.45;;
51459;SDS011;37534;39.772;2.718;2023-04-22T03:00:58;4.97;;;2.03;;
51459;SDS011;37534;39.772;2.718;2023-04-22T03:03:24;5.13;;;2.03;;
51459;SDS011;37534;39.772;2.718;2023-04-22T03:05:49;12.95;;;3.10;;
51459;SDS011;37534;39.772;2.718;2023-04-22T03:08:15;16.67;;;3.70;;
51459;SDS011;37534;39.772;2.718;2023-04-22T03:10:40;8.23;;;2.10;;
51459;SDS011;37534;39.772;2.718;2023-04-22T03:13:06;7.60;;;2.47;;
51459;SDS011;37534;39.772;2.718;2023-04-22T03:15:32;12.38;;;2.85;;
51459;SDS011;37534;39.772;2.718;2023-04-22T03:17:57;8.02;;;3.40;;
51459;SDS011;37534;39.772;2.718;2023-04-22T03:20:23;11.02;;;2.78;;
51459;SDS011;37534;39.772;2.718;2023-04-22T03:22:48;5.95;;;3.58;;
51459;SDS011;37534;39.772;2.718;2023-04-22T03:25:14;6.65;;;2.67;;
51459;SDS011;37534;39.772;2.718;2023-04-22T03:27:39;18.83;;;3.90;;
51459;SDS011;37534;39.772;2.718;2023-04-22T03:30:06;12.27;;;3.55;;
51459;SDS011;37534;39.772;2.718;2023-04-22T03:32:32;10.25;;;3.55;;
51459;SDS011;37534;39.772;2.718;2023-04-22T03:34:58;16.27;;;4.68;;
51459;SDS011;37534;39.772;2.718;2023-04-22T03:37:23;13.25;;;3.80;;
51459;SDS011;37534;39.772;2.718;2023-04-22T03:39:49;11.82;;;2.65;;
51459;SDS011;37534;39.772;2.718;2023-04-22T03:42:14;9.50;;;3.53;;
51459;SDS011;37534;39.772;2.718;2023-04-22T03:44:40;14.57;;;3.60;;
51459;SDS011;37534;39.772;2.718;2023-04-22T03:47:06;10.55;;;3.42;;
51459;SDS011;37534;39.772;2.718;2023-04-22T03:49:31;5.93;;;3.13;;
51459;SDS011;37534;39.772;2.718;2023-04-22T03:51:57;6.78;;;2.53;;
51459;SDS011;37534;39.772;2.718;2023-04-22T03:54:23;9.77;;;3.17;;
51459;SDS011;37534;39.772;2.718;2023-04-22T03:56:49;7.63;;;3.15;;
51459;SDS011;37534;39.772;2.718;2023-04-22T03:59:14;5.85;;;2.70;;
51459;SDS011;37534;39.772;2.718;2023-04-22T04:01:41;8.73;;;3.25;;
51459;SDS011;37534;39.772;2.718;2023-04-22T04:04:06;4.45;;;2.25;;
51459;SDS011;37534;39.772;2.718;2023-04-22T04:06:32;6.05;;;2.72;;
51459;SDS011;37534;39.772;2.718;2023-04-22T04:08:58;7.10;;;3.45;;
51459;SDS011;37534;39.772;2.718;2023-04-22T04:11:23;4.35;;;2.83;;
51459;SDS011;37534;39.772;2.718;2023-04-22T04:13:49;7.40;;;3.13;;
51459;SDS011;37534;39.772;2.718;2023-04-22T04:16:14;8.85;;;3.17;;
51459;SDS011;37534;39.772;2.718;2023-04-22T04:18:40;12.73;;;2.85;;
51459;SDS011;37534;39.772;2.718;2023-04-22T04:21:06;7.47;;;3.10;;
51459;SDS011;37534;39.772;2.718;2023-04-22T04:23:31;18.35;;;4.68;;
51459;SDS011;37534;39.772;2.718;2023-04-22T04:25:58;6.78;;;3.22;;
51459;SDS011;37534;39.772;2.718;2023-04-22T04:28:27;8.20;;;3.25;;
51459;SDS011;37534;39.772;2.718;2023-04-22T04:30:59;6.68;;;2.53;;
51459;SDS011;37534;39.772;2.718;2023-04-22T04:33:26;9.50;;;3.08;;
51459;SDS011;37534;39.772;2.718;2023-04-22T04:35:53;15.95;;;3.50;;
51459;SDS011;37534;39.772;2.718;2023-04-22T04:38:18;13.15;;;3.80;;
51459;SDS011;37534;39.772;2.718;2023-04-22T04:40:44;9.65;;;2.85;;
51459;SDS011;37534;39.772;2.718;2023-04-22T04:43:09;10.32;;;2.38;;
51459;SDS011;37534;39.772;2.718;2023-04-22T04:45:37;11.32;;;4.35;;
51459;SDS011;37534;39.772;2.718;2023-04-22T04:48:03;12.13;;;4.00;;
51459;SDS011;37534;39.772;2.718;2023-04-22T04:50:31;10.52;;;3.35;;
51459;SDS011;37534;39.772;2.718;2023-04-22T04:52:57;4.95;;;3.15;;
51459;SDS011;37534;39.772;2.718;2023-04-22T04:55:22;7.45;;;3.58;;
51459;SDS011;37534;39.772;2.718;2023-04-22T04:57:48;10.10;;;3.22;;
51459;SDS011;37534;39.772;2.718;2023-04-22T05:00:14;12.27;;;3.35;;
51459;SDS011;37534;39.772;2.718;2023-04-22T05:02:40;14.85;;;3.95;;
51459;SDS011;37534;39.772;2.718;2023-04-22T05:05:05;6.10;;;3.28;;
51459;SDS011;37534;39.772;2.718;2023-04-22T05:07:31;8.93;;;4.03;;
51459;SDS011;37534;39.772;2.718;2023-04-22T05:09:57;8.90;;;3.45;;
51459;SDS011;37534;39.772;2.718;2023-04-22T05:12:23;10.02;;;4.03;;
51459;SDS011;37534;39.772;2.718;2023-04-22T05:14:48;14.27;;;4.05;;
51459;SDS011;37534;39.772;2.718;2023-04-22T05:17:14;7.72;;;3.75;;
51459;SDS011;37534;39.772;2.718;2023-04-22T05:19:39;18.58;;;4.07;;
51459;SDS011;37534;39.772;2.718;2023-04-22T05:22:06;13.48;;;4.85;;
51459;SDS011;37534;39.772;2.718;2023-04-22T05:24:31;14.13;;;4.40;;
51459;SDS011;37534;39.772;2.718;2023-04-22T05:26:57;13.45;;;3.90;;
51459;SDS011;37534;39.772;2.718;2023-04-22T05:29:23;8.35;;;3.83;;
51459;SDS011;37534;39.772;2.718;2023-04-22T05:31:48;13.30;;;4.18;;
51459;SDS011;37534;39.772;2.718;2023-04-22T05:34:14;7.88;;;3.15;;
51459;SDS011;37534;39.772;2.718;2023-04-22T05:36:39;8.38;;;3.72;;
51459;SDS011;37534;39.772;2.718;2023-04-22T05:39:05;11.05;;;4.18;;
51459;SDS011;37534;39.772;2.718;2023-04-22T05:41:31;12.88;;;4.00;;
51459;SDS011;37534;39.772;2.718;2023-04-22T05:43:56;6.95;;;3.42;;
51459;SDS011;37534;39.772;2.718;2023-04-22T05:46:22;16.92;;;4.20;;
51459;SDS011;37534;39.772;2.718;2023-04-22T05:48:47;12.85;;;3.72;;
51459;SDS011;37534;39.772;2.718;2023-04-22T05:51:13;10.57;;;4.07;;
51459;SDS011;37534;39.772;2.718;2023-04-22T05:53:38;10.95;;;4.53;;
51459;SDS011;37534;39.772;2.718;2023-04-22T05:56:04;8.38;;;3.58;;
51459;SDS011;37534;39.772;2.718;2023-04-22T05:58:30;13.23;;;4.05;;
51459;SDS011;37534;39.772;2.718;2023-04-22T06:00:55;15.52;;;4.25;;
51459;SDS011;37534;39.772;2.718;2023-04-22T06:03:21;10.35;;;4.25;;
51459;SDS011;37534;39.772;2.718;2023-04-22T06:05:46;10.00;;;3.92;;
51459;SDS011;37534;39.772;2.718;2023-04-22T06:08:12;15.27;;;5.68;;
51459;SDS011;37534;39.772;2.718;2023-04-22T06:10:38;13.90;;;6.50;;
51459;SDS011;37534;39.772;2.718;2023-04-22T06:13:03;15.63;;;5.93;;
51459;SDS011;37534;39.772;2.718;2023-04-22T06:15:29;8.55;;;5.25;;
51459;SDS011;37534;39.772;2.718;2023-04-22T06:17:54;13.52;;;5.25;;
51459;SDS011;37534;39.772;2.718;2023-04-22T06:20:20;18.05;;;6.50;;
51459;SDS011;37534;39.772;2.718;2023-04-22T06:22:45;23.20;;;8.75;;
51459;SDS011;37534;39.772;2.718;2023-04-22T06:25:11;12.85;;;6.80;;
51459;SDS011;37534;39.772;2.718;2023-04-22T06:27:36;18.80;;;6.90;;
51459;SDS011;37534;39.772;2.718;2023-04-22T06:30:02;13.45;;;7.40;;
51459;SDS011;37534;39.772;2.718;2023-04-22T06:32:31;23.77;;;10.35;;
51459;SDS011;37534;39.772;2.718;2023-04-22T06:34:56;18.58;;;10.30;;
51459;SDS011;37534;39.772;2.718;2023-04-22T06:37:22;20.95;;;11.65;;
51459;SDS011;37534;39.772;2.718;2023-04-22T06:39:47;30.55;;;12.57;;
51459;SDS011;37534;39.772;2.718;2023-04-22T06:42:13;23.52;;;16.42;;
51459;SDS011;37534;39.772;2.718;2023-04-22T06:44:38;38.42;;;18.55;;
51459;SDS011;37534;39.772;2.718;2023-04-22T06:47:04;25.48;;;13.23;;
51459;SDS011;37534;39.772;2.718;2023-04-22T06:49:29;20.65;;;11.60;;
51459;SDS011;37534;39.772;2.718;2023-04-22T06:51:55;19.20;;;11.52;;
51459;SDS011;37534;39.772;2.718;2023-04-22T06:54:20;19.20;;;9.77;;
51459;SDS011;37534;39.772;2.718;2023-04-22T06:56:46;12.07;;;7.07;;
51459;SDS011;37534;39.772;2.718;2023-04-22T06:59:12;14.80;;;6.78;;
51459;SDS011;37534;39.772;2.718;2023-04-22T07:01:37;18.90;;;6.90;;
51459;SDS011;37534;39.772;2.718;2023-04-22T07:04:03;16.95;;;5.97;;
51459;SDS011;37534;39.772;2.718;2023-04-22T07:06:28;7.45;;;4.30;;
51459;SDS011;37534;39.772;2.718;2023-04-22T07:08:54;13.90;;;5.80;;
51459;SDS011;37534;39.772;2.718;2023-04-22T07:11:20;13.70;;;4.88;;
51459;SDS011;37534;39.772;2.718;2023-04-22T07:13:45;17.23;;;5.57;;
51459;SDS011;37534;39.772;2.718;2023-04-22T07:16:11;11.48;;;4.43;;
51459;SDS011;37534;39.772;2.718;2023-04-22T07:18:36;12.85;;;4.53;;
51459;SDS011;37534;39.772;2.718;2023-04-22T07:21:03;13.27;;;4.25;;
51459;SDS011;37534;39.772;2.718;2023-04-22T07:23:29;16.33;;;4.57;;
51459;SDS011;37534;39.772;2.718;2023-04-22T07:25:55;14.82;;;4.78;;
51459;SDS011;37534;39.772;2.718;2023-04-22T07:28:21;19.67;;;5.63;;
51459;SDS011;37534;39.772;2.718;2023-04-22T07:30:47;30.38;;;13.15;;
51459;SDS011;37534;39.772;2.718;2023-04-22T07:33:12;29.23;;;17.85;;
51459;SDS011;37534;39.772;2.718;2023-04-22T07:35:38;51.50;;;22.65;;
51459;SDS011;37534;39.772;2.718;2023-04-22T07:38:03;22.55;;;13.18;;
51459;SDS011;37534;39.772;2.718;2023-04-22T07:40:29;16.85;;;8.00;;
51459;SDS011;37534;39.772;2.718;2023-04-22T07:42:55;23.10;;;9.10;;
51459;SDS011;37534;39.772;2.718;2023-04-22T07:45:20;39.08;;;26.42;;
51459;SDS011;37534;39.772;2.718;2023-04-22T07:47:46;35.42;;;20.33;;
51459;SDS011;37534;39.772;2.718;2023-04-22T07:50:11;55.28;;;31.13;;
51459;SDS011;37534;39.772;2.718;2023-04-22T07:52:37;30.52;;;15.02;;
51459;SDS011;37534;39.772;2.718;2023-04-22T07:55:03;32.00;;;20.67;;
51459;SDS011;37534;39.772;2.718;2023-04-22T07:57:28;14.20;;;8.75;;
51459;SDS011;37534;39.772;2.718;2023-04-22T07:59:54;17.50;;;5.90;;
51459;SDS011;37534;39.772;2.718;2023-04-22T08:02:19;22.55;;;9.73;;
51459;SDS011;37534;39.772;2.718;2023-04-22T08:04:45;23.98;;;10.18;;
51459;SDS011;37534;39.772;2.718;2023-04-22T08:07:11;21.42;;;13.20;;
51459;SDS011;37534;39.772;2.718;2023-04-22T08:09:38;37.10;;;18.83;;
51459;SDS011;37534;39.772;2.718;2023-04-22T08:12:03;51.35;;;24.80;;
51459;SDS011;37534;39.772;2.718;2023-04-22T08:14:29;30.45;;;13.70;;
51459;SDS011;37534;39.772;2.718;2023-04-22T08:16:54;20.42;;;9.13;;
51459;SDS011;37534;39.772;2.718;2023-04-22T08:19:20;22.33;;;8.45;;
51459;SDS011;37534;39.772;2.718;2023-04-22T08:21:45;21.30;;;9.00;;
51459;SDS011;37534;39.772;2.718;2023-04-22T08:24:12;32.35;;;20.27;;
51459;SDS011;37534;39.772;2.718;2023-04-22T08:26:38;18.30;;;7.40;;
51459;SDS011;37534;39.772;2.718;2023-04-22T08:29:04;35.53;;;16.20;;
51459;SDS011;37534;39.772;2.718;2023-04-22T08:31:31;18.75;;;8.95;;
51459;SDS011;37534;39.772;2.718;2023-04-22T08:33:56;50.65;;;20.25;;
51459;SDS011;37534;39.772;2.718;2023-04-22T08:36:22;28.35;;;13.55;;
51459;SDS011;37534;39.772;2.718;2023-04-22T08:38:50;46.10;;;21.88;;
51459;SDS011;37534;39.772;2.718;2023-04-22T08:41:16;50.13;;;27.45;;
51459;SDS011;37534;39.772;2.718;2023-04-22T08:43:43;13.65;;;8.60;;
51459;SDS011;37534;39.772;2.718;2023-04-22T08:46:10;44.90;;;18.10;;
51459;SDS011;37534;39.772;2.718;2023-04-22T08:48:36;24.85;;;12.65;;
51459;SDS011;37534;39.772;2.718;2023-04-22T08:51:02;26.92;;;9.38;;
51459;SDS011;37534;39.772;2.718;2023-04-22T08:53:27;20.17;;;5.78;;
51459;SDS011;37534;39.772;2.718;2023-04-22T08:55:54;14.65;;;6.22;;
51459;SDS011;37534;39.772;2.718;2023-04-22T08:58:21;18.70;;;5.00;;
51459;SDS011;37534;39.772;2.718;2023-04-22T09:00:48;19.40;;;8.40;;
51459;SDS011;37534;39.772;2.718;2023-04-22T09:03:13;10.90;;;6.25;;
51459;SDS011;37534;39.772;2.718;2023-04-22T09:05:40;18.10;;;5.82;;
51459;SDS011;37534;39.772;2.718;2023-04-22T09:08:08;17.92;;;6.03;;
51459;SDS011;37534;39.772;2.718;2023-04-22T09:10:35;25.58;;;6.15;;
51459;SDS011;37534;39.772;2.718;2023-04-22T09:13:02;15.60;;;4.43;;
51459;SDS011;37534;39.772;2.718;2023-04-22T09:15:29;22.27;;;11.45;;
51459;SDS011;37534;39.772;2.718;2023-04-22T09:17:55;12.05;;;6.32;;
51459;SDS011;37534;39.772;2.718;2023-04-22T09:20:26;23.55;;;8.05;;
51459;SDS011;37534;39.772;2.718;2023-04-22T09:22:52;13.13;;;5.70;;
51459;SDS011;37534;39.772;2.718;2023-04-22T09:25:23;14.80;;;6.00;;
51459;SDS011;37534;39.772;2.718;2023-04-22T09:27:52;19.75;;;6.15;;
51459;SDS011;37534;39.772;2.718;2023-04-22T09:30:30;15.73;;;4.82;;
51459;SDS011;37534;39.772;2.718;2023-04-22T09:33:02;21.42;;;4.95;;
51459;SDS011;37534;39.772;2.718;2023-04-22T09:35:31;13.02;;;4.05;;
51459;SDS011;37534;39.772;2.718;2023-04-22T09:37:57;11.88;;;4.93;;
51459;SDS011;37534;39.772;2.718;2023-04-22T09:40:24;12.90;;;4.40;;
51459;SDS011;37534;39.772;2.718;2023-04-22T09:42:51;9.50;;;3.17;;
51459;SDS011;37534;39.772;2.718;2023-04-22T09:45:26;9.82;;;3.95;;
51459;SDS011;37534;39.772;2.718;2023-04-22T09:48:02;9.05;;;4.25;;
51459;SDS011;37534;39.772;2.718;2023-04-22T09:50:32;11.93;;;4.70;;
51459;SDS011;37534;39.772;2.718;2023-04-22T09:53:03;13.95;;;4.95;;
51459;SDS011;37534;39.772;2.718;2023-04-22T09:55:34;9.82;;;4.57;;
51459;SDS011;37534;39.772;2.718;2023-04-22T09:58:06;10.60;;;4.38;;
51459;SDS011;37534;39.772;2.718;2023-04-22T10:00:34;13.77;;;4.45;;
51459;SDS011;37534;39.772;2.718;2023-04-22T10:03:04;17.17;;;5.30;;
51459;SDS011;37534;39.772;2.718;2023-04-22T10:05:31;19.75;;;9.23;;
51459;SDS011;37534;39.772;2.718;2023-04-22T10:08:05;16.17;;;9.00;;
51459;SDS011;37534;39.772;2.718;2023-04-22T10:10:32;10.48;;;4.95;;
51459;SDS011;37534;39.772;2.718;2023-04-22T10:12:59;16.02;;;6.18;;
51459;SDS011;37534;39.772;2.718;2023-04-22T10:15:26;10.60;;;4.53;;
51459;SDS011;37534;39.772;2.718;2023-04-22T10:18:23;7.90;;;2.70;;
51459;SDS011;37534;39.772;2.718;2023-04-22T10:20:51;12.93;;;4.45;;
51459;SDS011;37534;39.772;2.718;2023-04-22T10:23:19;16.35;;;9.98;;
51459;SDS011;37534;39.772;2.718;2023-04-22T10:25:49;13.02;;;4.55;;
51459;SDS011;37534;39.772;2.718;2023-04-22T10:28:19;9.07;;;3.72;;
51459;SDS011;37534;39.772;2.718;2023-04-22T10:30:46;6.43;;;3.40;;
51459;SDS011;37534;39.772;2.718;2023-04-22T10:38:35;18.13;;;10.45;;
51459;SDS011;37534;39.772;2.718;2023-04-22T10:41:05;12.65;;;5.70;;
51459;SDS011;37534;39.772;2.718;2023-04-22T10:43:44;15.85;;;7.70;;
51459;SDS011;37534;39.772;2.718;2023-04-22T10:49:11;9.35;;;3.80;;
51459;SDS011;37534;39.772;2.718;2023-04-22T10:51:51;17.67;;;3.05;;
51459;SDS011;37534;39.772;2.718;2023-04-22T10:57:11;13.63;;;3.72;;
51459;SDS011;37534;39.772;2.718;2023-04-22T10:59:53;8.98;;;4.18;;
51459;SDS011;37534;39.772;2.718;2023-04-22T11:02:20;6.50;;;3.50;;
51459;SDS011;37534;39.772;2.718;2023-04-22T11:04:47;5.95;;;2.83;;
51459;SDS011;37534;39.772;2.718;2023-04-22T11:15:18;6.60;;;3.20;;
51459;SDS011;37534;39.772;2.718;2023-04-22T11:17:46;21.73;;;3.58;;
51459;SDS011;37534;39.772;2.718;2023-04-22T11:20:15;18.42;;;3.53;;
51459;SDS011;37534;39.772;2.718;2023-04-22T11:22:47;7.15;;;3.00;;
51459;SDS011;37534;39.772;2.718;2023-04-22T11:25:16;14.02;;;3.10;;
51459;SDS011;37534;39.772;2.718;2023-04-22T11:27:41;17.02;;;3.10;;
51459;SDS011;37534;39.772;2.718;2023-04-22T11:30:13;6.13;;;2.67;;
51459;SDS011;37534;39.772;2.718;2023-04-22T11:32:42;6.82;;;2.22;;
51459;SDS011;37534;39.772;2.718;2023-04-22T11:35:10;6.97;;;2.88;;
51459;SDS011;37534;39.772;2.718;2023-04-22T11:40:10;13.88;;;5.93;;
51459;SDS011;37534;39.772;2.718;2023-04-22T11:42:37;15.20;;;5.57;;
51459;SDS011;37534;39.772;2.718;2023-04-22T11:45:04;8.38;;;3.60;;
51459;SDS011;37534;39.772;2.718;2023-04-22T11:47:31;9.98;;;3.17;;
51459;SDS011;37534;39.772;2.718;2023-04-22T11:49:59;6.88;;;2.65;;
51459;SDS011;37534;39.772;2.718;2023-04-22T11:52:48;8.02;;;3.03;;
51459;SDS011;37534;39.772;2.718;2023-04-22T11:55:22;5.97;;;2.28;;
51459;SDS011;37534;39.772;2.718;2023-04-22T11:57:59;8.25;;;3.38;;
51459;SDS011;37534;39.772;2.718;2023-04-22T12:00:31;7.90;;;2.90;;
51459;SDS011;37534;39.772;2.718;2023-04-22T12:02:59;5.85;;;2.85;;
51459;SDS011;37534;39.772;2.718;2023-04-22T12:08:01;8.13;;;3.08;;
51459;SDS011;37534;39.772;2.718;2023-04-22T12:10:27;7.47;;;2.72;;
51459;SDS011;37534;39.772;2.718;2023-04-22T12:12:53;14.02;;;3.90;;
51459;SDS011;37534;39.772;2.718;2023-04-22T12:15:19;12.10;;;3.90;;
51459;SDS011;37534;39.772;2.718;2023-04-22T12:17:44;8.70;;;3.63;;
51459;SDS011;37534;39.772;2.718;2023-04-22T12:20:10;18.77;;;4.20;;
51459;SDS011;37534;39.772;2.718;2023-04-22T12:22:37;10.88;;;3.47;;
51459;SDS011;37534;39.772;2.718;2023-04-22T12:25:03;7.80;;;2.83;;
51459;SDS011;37534;39.772;2.718;2023-04-22T12:27:29;10.85;;;3.90;;
51459;SDS011;37534;39.772;2.718;2023-04-22T12:29:55;9.45;;;4.32;;
51459;SDS011;37534;39.772;2.718;2023-04-22T12:32:22;10.02;;;2.90;;
51459;SDS011;37534;39.772;2.718;2023-04-22T12:34:49;12.80;;;3.80;;
51459;SDS011;37534;39.772;2.718;2023-04-22T12:37:15;6.95;;;2.60;;
51459;SDS011;37534;39.772;2.718;2023-04-22T12:39:42;9.40;;;3.42;;
51459;SDS011;37534;39.772;2.718;2023-04-22T12:42:08;13.10;;;3.05;;
51459;SDS011;37534;39.772;2.718;2023-04-22T12:44:34;7.90;;;2.67;;
51459;SDS011;37534;39.772;2.718;2023-04-22T12:47:00;6.85;;;2.75;;
51459;SDS011;37534;39.772;2.718;2023-04-22T12:49:26;7.28;;;2.53;;
51459;SDS011;37534;39.772;2.718;2023-04-22T12:51:51;9.32;;;3.08;;
51459;SDS011;37534;39.772;2.718;2023-04-22T12:54:20;16.17;;;3.20;;
51459;SDS011;37534;39.772;2.718;2023-04-22T12:56:46;15.55;;;3.45;;
51459;SDS011;37534;39.772;2.718;2023-04-22T12:59:13;7.43;;;3.28;;
51459;SDS011;37534;39.772;2.718;2023-04-22T13:01:39;14.55;;;3.83;;
51459;SDS011;37534;39.772;2.718;2023-04-22T13:04:05;12.15;;;3.72;;
51459;SDS011;37534;39.772;2.718;2023-04-22T13:06:31;13.07;;;3.42;;
51459;SDS011;37534;39.772;2.718;2023-04-22T13:08:57;14.50;;;3.33;;
51459;SDS011;37534;39.772;2.718;2023-04-22T13:11:23;6.13;;;2.63;;
51459;SDS011;37534;39.772;2.718;2023-04-22T13:13:49;10.82;;;3.50;;
51459;SDS011;37534;39.772;2.718;2023-04-22T13:16:15;10.15;;;3.33;;
51459;SDS011;37534;39.772;2.718;2023-04-22T13:18:40;11.98;;;3.15;;
51459;SDS011;37534;39.772;2.718;2023-04-22T13:21:06;9.00;;;3.38;;
51459;SDS011;37534;39.772;2.718;2023-04-22T13:23:31;11.40;;;3.65;;
51459;SDS011;37534;39.772;2.718;2023-04-22T13:25:58;6.88;;;3.20;;
51459;SDS011;37534;39.772;2.718;2023-04-22T13:28:23;13.30;;;3.72;;
51459;SDS011;37534;39.772;2.718;2023-04-22T13:30:49;10.70;;;3.55;;
51459;SDS011;37534;39.772;2.718;2023-04-22T13:33:15;13.20;;;3.53;;
51459;SDS011;37534;39.772;2.718;2023-04-22T13:35:40;8.82;;;3.63;;
51459;SDS011;37534;39.772;2.718;2023-04-22T13:38:06;10.35;;;3.60;;
51459;SDS011;37534;39.772;2.718;2023-04-22T13:40:32;8.57;;;3.78;;
51459;SDS011;37534;39.772;2.718;2023-04-22T13:42:57;11.50;;;3.72;;
51459;SDS011;37534;39.772;2.718;2023-04-22T13:45:23;12.90;;;3.72;;
51459;SDS011;37534;39.772;2.718;2023-04-22T13:47:50;9.02;;;4.15;;
51459;SDS011;37534;39.772;2.718;2023-04-22T13:50:16;7.03;;;2.67;;
51459;SDS011;37534;39.772;2.718;2023-04-22T13:52:42;11.10;;;3.03;;
51459;SDS011;37534;39.772;2.718;2023-04-22T13:55:08;11.13;;;3.40;;
51459;SDS011;37534;39.772;2.718;2023-04-22T13:57:33;15.25;;;4.97;;
51459;SDS011;37534;39.772;2.718;2023-04-22T13:59:59;14.63;;;3.85;;
51459;SDS011;37534;39.772;2.718;2023-04-22T14:02:24;16.33;;;3.83;;
51459;SDS011;37534;39.772;2.718;2023-04-22T14:04:50;8.18;;;3.10;;
51459;SDS011;37534;39.772;2.718;2023-04-22T14:07:16;12.57;;;4.28;;
51459;SDS011;37534;39.772;2.718;2023-04-22T14:09:41;10.20;;;3.72;;
51459;SDS011;37534;39.772;2.718;2023-04-22T14:12:07;9.30;;;4.03;;
51459;SDS011;37534;39.772;2.718;2023-04-22T14:14:33;14.20;;;4.82;;
51459;SDS011;37534;39.772;2.718;2023-04-22T14:16:59;13.88;;;3.90;;
51459;SDS011;37534;39.772;2.718;2023-04-22T14:19:24;6.57;;;3.17;;
51459;SDS011;37534;39.772;2.718;2023-04-22T14:21:51;11.68;;;3.72;;
51459;SDS011;37534;39.772;2.718;2023-04-22T14:24:17;17.75;;;4.53;;
51459;SDS011;37534;39.772;2.718;2023-04-22T14:26:43;11.82;;;3.88;;
51459;SDS011;37534;39.772;2.718;2023-04-22T14:29:09;10.90;;;3.20;;
51459;SDS011;37534;39.772;2.718;2023-04-22T14:31:34;17.23;;;3.20;;
51459;SDS011;37534;39.772;2.718;2023-04-22T14:34:00;13.40;;;3.97;;
51459;SDS011;37534;39.772;2.718;2023-04-22T14:36:26;20.00;;;4.63;;
51459;SDS011;37534;39.772;2.718;2023-04-22T14:38:51;12.00;;;3.67;;
51459;SDS011;37534;39.772;2.718;2023-04-22T14:41:17;13.38;;;3.60;;
51459;SDS011;37534;39.772;2.718;2023-04-22T14:43:43;9.15;;;2.75;;
51459;SDS011;37534;39.772;2.718;2023-04-22T14:46:08;14.82;;;3.60;;
51459;SDS011;37534;39.772;2.718;2023-04-22T14:48:34;11.45;;;4.13;;
51459;SDS011;37534;39.772;2.718;2023-04-22T14:51:00;14.90;;;3.75;;
51459;SDS011;37534;39.772;2.718;2023-04-22T14:53:25;13.65;;;3.70;;
51459;SDS011;37534;39.772;2.718;2023-04-22T14:55:51;8.25;;;4.03;;
51459;SDS011;37534;39.772;2.718;2023-04-22T14:58:17;21.38;;;4.00;;